sensor_id;sensor_type;location;lat;lon;timestamp;P1;durP1;ratioP1;P2;durP2;ratioP2
22851;SDS011;11592;45.460;9.240;2022-12-18T00:01:18;30.73;;;18.05;;
22851;SDS011;11592;45.460;9.240;2022-12-18T00:03:47;34.08;;;19.88;;
22851;SDS011;11592;45.460;9.240;2022-12-18T00:06:15;33.00;;;19.35;;
22851;SDS011;11592;45.460;9.240;2022-12-18T00:08:42;36.42;;;21.10;;
22851;SDS011;11592;45.460;9.240;2022-12-18T00:11:11;41.42;;;22.58;;
22851;SDS011;11592;45.460;9.240;2022-12-18T00:13:42;38.92;;;22.25;;
22851;SDS011;11592;45.460;9.240;2022-12-18T00:16:11;40.83;;;23.13;;
22851;SDS011;11592;45.460;9.240;2022-12-18T00:18:40;41.15;;;22.35;;
22851;SDS011;11592;45.460;9.240;2022-12-18T00:21:09;38.55;;;22.20;;
22851;SDS011;11592;45.460;9.240;2022-12-18T00:23:37;42.03;;;23.88;;
22851;SDS011;11592;45.460;9.240;2022-12-18T00:26:09;42.70;;;23.98;;
22851;SDS011;11592;45.460;9.240;2022-12-18T00:28:37;45.03;;;23.75;;
22851;SDS011;11592;45.460;9.240;2022-12-18T00:31:08;41.90;;;23.63;;
22851;SDS011;11592;45.460;9.240;2022-12-18T00:33:38;39.67;;;23.77;;
22851;SDS011;11592;45.460;9.240;2022-12-18T00:36:07;41.67;;;23.50;;
22851;SDS011;11592;45.460;9.240;2022-12-18T00:38:38;39.60;;;21.52;;
22851;SDS011;11592;45.460;9.240;2022-12-18T00:41:05;37.50;;;21.08;;
22851;SDS011;11592;45.460;9.240;2022-12-18T00:43:33;39.10;;;21.52;;
22851;SDS011;11592;45.460;9.240;2022-12-18T00:46:00;40.97;;;21.45;;
22851;SDS011;11592;45.460;9.240;2022-12-18T00:48:28;38.17;;;21.20;;
22851;SDS011;11592;45.460;9.240;2022-12-18T00:50:55;41.30;;;21.38;;
22851;SDS011;11592;45.460;9.240;2022-12-18T00:53:21;41.65;;;22.25;;
22851;SDS011;11592;45.460;9.240;2022-12-18T00:55:48;39.72;;;21.88;;
22851;SDS011;11592;45.460;9.240;2022-12-18T00:58:15;41.00;;;20.77;;
22851;SDS011;11592;45.460;9.240;2022-12-18T01:00:43;40.22;;;21.02;;
22851;SDS011;11592;45.460;9.240;2022-12-18T01:03:12;41.30;;;21.65;;
22851;SDS011;11592;45.460;9.240;2022-12-18T01:05:40;49.47;;;23.55;;
22851;SDS011;11592;45.460;9.240;2022-12-18T01:08:08;61.03;;;27.50;;
22851;SDS011;11592;45.460;9.240;2022-12-18T01:10:34;58.17;;;25.95;;
22851;SDS011;11592;45.460;9.240;2022-12-18T01:13:01;75.10;;;28.13;;
22851;SDS011;11592;45.460;9.240;2022-12-18T01:15:28;77.07;;;29.73;;
22851;SDS011;11592;45.460;9.240;2022-12-18T01:17:55;75.07;;;30.00;;
22851;SDS011;11592;45.460;9.240;2022-12-18T01:20:22;70.25;;;29.80;;
22851;SDS011;11592;45.460;9.240;2022-12-18T01:22:48;80.28;;;29.83;;
22851;SDS011;11592;45.460;9.240;2022-12-18T01:25:15;82.55;;;31.05;;
22851;SDS011;11592;45.460;9.240;2022-12-18T01:27:42;84.75;;;31.55;;
22851;SDS011;11592;45.460;9.240;2022-12-18T01:30:09;82.97;;;30.35;;
22851;SDS011;11592;45.460;9.240;2022-12-18T01:32:36;84.90;;;30.45;;
22851;SDS011;11592;45.460;9.240;2022-12-18T01:35:03;80.70;;;31.25;;
22851;SDS011;11592;45.460;9.240;2022-12-18T01:37:30;79.70;;;30.48;;
22851;SDS011;11592;45.460;9.240;2022-12-18T01:39:57;89.45;;;34.22;;
22851;SDS011;11592;45.460;9.240;2022-12-18T01:42:24;81.47;;;32.53;;
22851;SDS011;11592;45.460;9.240;2022-12-18T01:50:27;85.00;;;33.55;;
22851;SDS011;11592;45.460;9.240;2022-12-18T01:53:07;97.45;;;33.85;;
22851;SDS011;11592;45.460;9.240;2022-12-18T01:55:50;86.40;;;32.60;;
22851;SDS011;11592;45.460;9.240;2022-12-18T01:58:20;86.13;;;33.03;;
22851;SDS011;11592;45.460;9.240;2022-12-18T02:01:09;82.63;;;31.92;;
22851;SDS011;11592;45.460;9.240;2022-12-18T02:03:36;77.80;;;31.60;;
22851;SDS011;11592;45.460;9.240;2022-12-18T02:09:03;75.00;;;31.23;;
22851;SDS011;11592;45.460;9.240;2022-12-18T02:11:44;69.57;;;30.20;;
22851;SDS011;11592;45.460;9.240;2022-12-18T02:17:07;70.35;;;31.27;;
22851;SDS011;11592;45.460;9.240;2022-12-18T02:27:44;84.68;;;33.42;;
22851;SDS011;11592;45.460;9.240;2022-12-18T02:30:13;82.70;;;33.67;;
22851;SDS011;11592;45.460;9.240;2022-12-18T02:32:42;71.43;;;32.35;;
22851;SDS011;11592;45.460;9.240;2022-12-18T02:35:13;76.65;;;32.20;;
22851;SDS011;11592;45.460;9.240;2022-12-18T02:37:43;79.72;;;31.92;;
22851;SDS011;11592;45.460;9.240;2022-12-18T02:40:13;78.93;;;31.95;;
22851;SDS011;11592;45.460;9.240;2022-12-18T02:42:41;76.40;;;31.40;;
22851;SDS011;11592;45.460;9.240;2022-12-18T02:45:08;69.78;;;30.55;;
22851;SDS011;11592;45.460;9.240;2022-12-18T02:47:37;76.10;;;31.42;;
22851;SDS011;11592;45.460;9.240;2022-12-18T02:50:18;83.88;;;34.40;;
22851;SDS011;11592;45.460;9.240;2022-12-18T03:01:19;81.72;;;34.20;;
22851;SDS011;11592;45.460;9.240;2022-12-18T03:03:55;76.80;;;31.85;;
22851;SDS011;11592;45.460;9.240;2022-12-18T03:06:35;78.32;;;32.28;;
22851;SDS011;11592;45.460;9.240;2022-12-18T03:09:07;82.57;;;32.78;;
22851;SDS011;11592;45.460;9.240;2022-12-18T03:11:39;75.32;;;32.72;;
22851;SDS011;11592;45.460;9.240;2022-12-18T03:14:27;74.35;;;32.85;;
22851;SDS011;11592;45.460;9.240;2022-12-18T03:16:59;84.10;;;31.80;;
22851;SDS011;11592;45.460;9.240;2022-12-18T03:19:31;78.63;;;32.95;;
22851;SDS011;11592;45.460;9.240;2022-12-18T03:22:00;72.55;;;30.65;;
22851;SDS011;11592;45.460;9.240;2022-12-18T03:24:29;74.22;;;33.00;;
22851;SDS011;11592;45.460;9.240;2022-12-18T03:27:01;75.78;;;32.30;;
22851;SDS011;11592;45.460;9.240;2022-12-18T03:29:35;73.05;;;32.78;;
22851;SDS011;11592;45.460;9.240;2022-12-18T03:32:09;71.47;;;30.92;;
22851;SDS011;11592;45.460;9.240;2022-12-18T03:34:39;69.72;;;29.85;;
22851;SDS011;11592;45.460;9.240;2022-12-18T03:37:08;71.32;;;30.98;;
22851;SDS011;11592;45.460;9.240;2022-12-18T03:39:35;74.60;;;30.65;;
22851;SDS011;11592;45.460;9.240;2022-12-18T03:44:48;71.07;;;31.50;;
22851;SDS011;11592;45.460;9.240;2022-12-18T03:47:40;75.28;;;30.77;;
22851;SDS011;11592;45.460;9.240;2022-12-18T03:52:54;80.35;;;31.80;;
22851;SDS011;11592;45.460;9.240;2022-12-18T03:55:47;77.90;;;32.83;;
22851;SDS011;11592;45.460;9.240;2022-12-18T03:58:16;78.13;;;32.08;;
22851;SDS011;11592;45.460;9.240;2022-12-18T04:00:45;85.35;;;34.90;;
22851;SDS011;11592;45.460;9.240;2022-12-18T04:03:14;75.82;;;33.05;;
22851;SDS011;11592;45.460;9.240;2022-12-18T04:05:52;81.07;;;32.47;;
22851;SDS011;11592;45.460;9.240;2022-12-18T04:08:21;77.13;;;32.00;;
22851;SDS011;11592;45.460;9.240;2022-12-18T04:10:49;81.65;;;32.35;;
22851;SDS011;11592;45.460;9.240;2022-12-18T04:13:29;85.18;;;33.67;;
22851;SDS011;11592;45.460;9.240;2022-12-18T04:16:01;79.50;;;32.38;;
22851;SDS011;11592;45.460;9.240;2022-12-18T04:18:29;88.45;;;34.92;;
22851;SDS011;11592;45.460;9.240;2022-12-18T04:20:56;81.95;;;34.33;;
22851;SDS011;11592;45.460;9.240;2022-12-18T04:23:23;79.30;;;32.97;;
22851;SDS011;11592;45.460;9.240;2022-12-18T04:25:50;82.30;;;33.42;;
22851;SDS011;11592;45.460;9.240;2022-12-18T04:28:16;81.88;;;31.40;;
22851;SDS011;11592;45.460;9.240;2022-12-18T04:30:43;78.75;;;33.17;;
22851;SDS011;11592;45.460;9.240;2022-12-18T04:33:11;75.88;;;33.63;;
22851;SDS011;11592;45.460;9.240;2022-12-18T04:35:39;79.57;;;34.00;;
22851;SDS011;11592;45.460;9.240;2022-12-18T04:38:06;80.55;;;31.88;;
22851;SDS011;11592;45.460;9.240;2022-12-18T04:40:34;74.70;;;31.77;;
22851;SDS011;11592;45.460;9.240;2022-12-18T04:43:02;78.13;;;33.03;;
22851;SDS011;11592;45.460;9.240;2022-12-18T04:45:30;83.47;;;32.80;;
22851;SDS011;11592;45.460;9.240;2022-12-18T04:47:58;77.20;;;32.70;;
22851;SDS011;11592;45.460;9.240;2022-12-18T04:50:25;77.05;;;32.63;;
22851;SDS011;11592;45.460;9.240;2022-12-18T04:52:53;82.03;;;32.33;;
22851;SDS011;11592;45.460;9.240;2022-12-18T04:55:20;82.00;;;32.25;;
22851;SDS011;11592;45.460;9.240;2022-12-18T04:57:46;81.93;;;33.75;;
22851;SDS011;11592;45.460;9.240;2022-12-18T05:00:13;79.35;;;31.35;;
22851;SDS011;11592;45.460;9.240;2022-12-18T05:02:40;89.30;;;34.22;;
22851;SDS011;11592;45.460;9.240;2022-12-18T05:05:07;88.70;;;33.78;;
22851;SDS011;11592;45.460;9.240;2022-12-18T05:07:35;92.05;;;33.67;;
22851;SDS011;11592;45.460;9.240;2022-12-18T05:10:02;95.57;;;35.00;;
22851;SDS011;11592;45.460;9.240;2022-12-18T05:12:30;96.38;;;35.85;;
22851;SDS011;11592;45.460;9.240;2022-12-18T05:14:57;98.50;;;34.63;;
22851;SDS011;11592;45.460;9.240;2022-12-18T05:17:24;98.53;;;35.65;;
22851;SDS011;11592;45.460;9.240;2022-12-18T05:19:51;99.03;;;34.90;;
22851;SDS011;11592;45.460;9.240;2022-12-18T05:22:17;105.40;;;35.72;;
22851;SDS011;11592;45.460;9.240;2022-12-18T05:24:44;99.40;;;34.60;;
22851;SDS011;11592;45.460;9.240;2022-12-18T05:27:11;103.57;;;35.15;;
22851;SDS011;11592;45.460;9.240;2022-12-18T05:29:38;110.70;;;36.92;;
22851;SDS011;11592;45.460;9.240;2022-12-18T05:32:05;111.93;;;36.38;;
22851;SDS011;11592;45.460;9.240;2022-12-18T05:34:31;105.60;;;34.80;;
22851;SDS011;11592;45.460;9.240;2022-12-18T05:36:59;102.60;;;36.30;;
22851;SDS011;11592;45.460;9.240;2022-12-18T05:39:26;105.85;;;34.40;;
22851;SDS011;11592;45.460;9.240;2022-12-18T05:41:52;98.40;;;37.00;;
22851;SDS011;11592;45.460;9.240;2022-12-18T05:44:19;111.65;;;37.95;;
22851;SDS011;11592;45.460;9.240;2022-12-18T05:46:46;100.97;;;35.42;;
22851;SDS011;11592;45.460;9.240;2022-12-18T05:49:13;104.93;;;36.47;;
22851;SDS011;11592;45.460;9.240;2022-12-18T05:51:40;110.32;;;36.58;;
22851;SDS011;11592;45.460;9.240;2022-12-18T05:54:07;113.30;;;37.55;;
22851;SDS011;11592;45.460;9.240;2022-12-18T05:56:35;109.00;;;35.53;;
22851;SDS011;11592;45.460;9.240;2022-12-18T05:59:02;105.32;;;35.53;;
22851;SDS011;11592;45.460;9.240;2022-12-18T06:01:29;111.45;;;37.50;;
22851;SDS011;11592;45.460;9.240;2022-12-18T06:03:56;109.38;;;34.80;;
22851;SDS011;11592;45.460;9.240;2022-12-18T06:06:24;109.90;;;36.00;;
22851;SDS011;11592;45.460;9.240;2022-12-18T06:08:52;115.63;;;39.33;;
22851;SDS011;11592;45.460;9.240;2022-12-18T06:11:22;113.50;;;35.80;;
22851;SDS011;11592;45.460;9.240;2022-12-18T06:13:51;103.38;;;36.10;;
22851;SDS011;11592;45.460;9.240;2022-12-18T06:16:24;118.65;;;36.00;;
22851;SDS011;11592;45.460;9.240;2022-12-18T06:18:52;121.78;;;37.90;;
22851;SDS011;11592;45.460;9.240;2022-12-18T06:21:19;112.35;;;36.08;;
22851;SDS011;11592;45.460;9.240;2022-12-18T06:23:46;110.10;;;35.35;;
22851;SDS011;11592;45.460;9.240;2022-12-18T06:26:13;115.38;;;37.40;;
22851;SDS011;11592;45.460;9.240;2022-12-18T06:28:40;104.53;;;35.25;;
22851;SDS011;11592;45.460;9.240;2022-12-18T06:31:07;117.00;;;37.65;;
22851;SDS011;11592;45.460;9.240;2022-12-18T06:33:35;117.10;;;37.97;;
22851;SDS011;11592;45.460;9.240;2022-12-18T06:36:05;118.82;;;38.58;;
22851;SDS011;11592;45.460;9.240;2022-12-18T06:38:38;119.38;;;36.83;;
22851;SDS011;11592;45.460;9.240;2022-12-18T06:41:11;121.68;;;35.72;;
22851;SDS011;11592;45.460;9.240;2022-12-18T06:43:40;118.22;;;36.20;;
22851;SDS011;11592;45.460;9.240;2022-12-18T06:46:09;111.05;;;34.55;;
22851;SDS011;11592;45.460;9.240;2022-12-18T06:48:36;113.50;;;35.90;;
22851;SDS011;11592;45.460;9.240;2022-12-18T06:51:03;115.63;;;38.50;;
22851;SDS011;11592;45.460;9.240;2022-12-18T06:53:31;128.10;;;37.22;;
22851;SDS011;11592;45.460;9.240;2022-12-18T06:56:05;125.35;;;35.90;;
22851;SDS011;11592;45.460;9.240;2022-12-18T06:58:36;113.03;;;37.00;;
22851;SDS011;11592;45.460;9.240;2022-12-18T07:01:04;127.13;;;36.53;;
22851;SDS011;11592;45.460;9.240;2022-12-18T07:03:32;137.90;;;36.40;;
22851;SDS011;11592;45.460;9.240;2022-12-18T07:05:59;134.75;;;36.72;;
22851;SDS011;11592;45.460;9.240;2022-12-18T07:08:25;140.45;;;38.42;;
22851;SDS011;11592;45.460;9.240;2022-12-18T07:10:52;128.82;;;38.25;;
22851;SDS011;11592;45.460;9.240;2022-12-18T07:13:21;131.80;;;38.30;;
22851;SDS011;11592;45.460;9.240;2022-12-18T07:15:48;115.00;;;35.53;;
22851;SDS011;11592;45.460;9.240;2022-12-18T07:18:15;121.47;;;34.83;;
22851;SDS011;11592;45.460;9.240;2022-12-18T07:20:42;117.80;;;34.58;;
22851;SDS011;11592;45.460;9.240;2022-12-18T07:23:08;127.50;;;35.60;;
22851;SDS011;11592;45.460;9.240;2022-12-18T07:25:35;119.88;;;35.78;;
22851;SDS011;11592;45.460;9.240;2022-12-18T07:28:03;108.80;;;35.53;;
22851;SDS011;11592;45.460;9.240;2022-12-18T07:30:30;117.25;;;34.50;;
22851;SDS011;11592;45.460;9.240;2022-12-18T07:32:57;127.30;;;36.47;;
22851;SDS011;11592;45.460;9.240;2022-12-18T07:35:24;117.65;;;34.45;;
22851;SDS011;11592;45.460;9.240;2022-12-18T07:37:51;106.75;;;33.30;;
22851;SDS011;11592;45.460;9.240;2022-12-18T07:40:17;120.47;;;32.85;;
22851;SDS011;11592;45.460;9.240;2022-12-18T07:42:44;110.32;;;32.05;;
22851;SDS011;11592;45.460;9.240;2022-12-18T07:45:11;108.00;;;30.80;;
22851;SDS011;11592;45.460;9.240;2022-12-18T07:47:38;105.47;;;31.50;;
22851;SDS011;11592;45.460;9.240;2022-12-18T07:50:05;115.20;;;33.70;;
22851;SDS011;11592;45.460;9.240;2022-12-18T07:52:32;94.72;;;31.55;;
22851;SDS011;11592;45.460;9.240;2022-12-18T07:54:59;106.28;;;32.63;;
22851;SDS011;11592;45.460;9.240;2022-12-18T07:57:25;104.80;;;32.08;;
22851;SDS011;11592;45.460;9.240;2022-12-18T08:00:12;101.75;;;31.88;;
22851;SDS011;11592;45.460;9.240;2022-12-18T08:02:40;94.97;;;31.58;;
22851;SDS011;11592;45.460;9.240;2022-12-18T08:05:07;105.82;;;31.50;;
22851;SDS011;11592;45.460;9.240;2022-12-18T08:07:34;93.68;;;30.20;;
22851;SDS011;11592;45.460;9.240;2022-12-18T08:10:01;98.80;;;31.33;;
22851;SDS011;11592;45.460;9.240;2022-12-18T08:12:29;95.60;;;30.50;;
22851;SDS011;11592;45.460;9.240;2022-12-18T08:14:56;91.20;;;30.08;;
22851;SDS011;11592;45.460;9.240;2022-12-18T08:17:22;93.18;;;30.17;;
22851;SDS011;11592;45.460;9.240;2022-12-18T08:19:49;85.60;;;29.95;;
22851;SDS011;11592;45.460;9.240;2022-12-18T08:22:16;83.45;;;29.13;;
22851;SDS011;11592;45.460;9.240;2022-12-18T08:24:42;78.60;;;28.27;;
22851;SDS011;11592;45.460;9.240;2022-12-18T08:27:09;80.63;;;28.65;;
22851;SDS011;11592;45.460;9.240;2022-12-18T08:29:54;84.60;;;28.87;;
22851;SDS011;11592;45.460;9.240;2022-12-18T08:32:21;73.63;;;27.85;;
22851;SDS011;11592;45.460;9.240;2022-12-18T08:34:48;78.03;;;28.67;;
22851;SDS011;11592;45.460;9.240;2022-12-18T08:37:15;77.53;;;28.63;;
22851;SDS011;11592;45.460;9.240;2022-12-18T08:39:42;82.88;;;30.02;;
22851;SDS011;11592;45.460;9.240;2022-12-18T08:42:09;74.70;;;28.42;;
22851;SDS011;11592;45.460;9.240;2022-12-18T08:44:55;78.15;;;28.08;;
22851;SDS011;11592;45.460;9.240;2022-12-18T08:47:21;74.10;;;28.02;;
22851;SDS011;11592;45.460;9.240;2022-12-18T08:49:48;70.30;;;26.90;;
22851;SDS011;11592;45.460;9.240;2022-12-18T08:52:15;76.10;;;28.17;;
22851;SDS011;11592;45.460;9.240;2022-12-18T08:54:42;80.05;;;28.42;;
22851;SDS011;11592;45.460;9.240;2022-12-18T08:57:08;76.75;;;30.67;;
22851;SDS011;11592;45.460;9.240;2022-12-18T08:59:35;79.35;;;29.30;;
22851;SDS011;11592;45.460;9.240;2022-12-18T09:02:02;73.40;;;29.00;;
22851;SDS011;11592;45.460;9.240;2022-12-18T09:04:29;77.32;;;30.42;;
22851;SDS011;11592;45.460;9.240;2022-12-18T09:06:56;73.05;;;28.58;;
22851;SDS011;11592;45.460;9.240;2022-12-18T09:09:23;81.88;;;31.23;;
22851;SDS011;11592;45.460;9.240;2022-12-18T09:11:50;70.53;;;28.88;;
22851;SDS011;11592;45.460;9.240;2022-12-18T09:14:17;74.20;;;30.35;;
22851;SDS011;11592;45.460;9.240;2022-12-18T09:16:43;77.05;;;29.77;;
22851;SDS011;11592;45.460;9.240;2022-12-18T09:19:10;77.97;;;30.00;;
22851;SDS011;11592;45.460;9.240;2022-12-18T09:21:37;73.93;;;29.15;;
22851;SDS011;11592;45.460;9.240;2022-12-18T09:24:13;72.22;;;28.80;;
22851;SDS011;11592;45.460;9.240;2022-12-18T09:26:41;69.13;;;27.58;;
22851;SDS011;11592;45.460;9.240;2022-12-18T09:29:12;73.95;;;29.52;;
22851;SDS011;11592;45.460;9.240;2022-12-18T09:31:40;70.72;;;29.08;;
22851;SDS011;11592;45.460;9.240;2022-12-18T09:34:07;79.75;;;31.70;;
22851;SDS011;11592;45.460;9.240;2022-12-18T09:36:34;78.97;;;30.25;;
22851;SDS011;11592;45.460;9.240;2022-12-18T09:39:01;76.47;;;30.35;;
22851;SDS011;11592;45.460;9.240;2022-12-18T09:44:22;70.88;;;28.35;;
22851;SDS011;11592;45.460;9.240;2022-12-18T09:46:54;71.65;;;30.17;;
22851;SDS011;11592;45.460;9.240;2022-12-18T09:49:39;77.82;;;29.02;;
22851;SDS011;11592;45.460;9.240;2022-12-18T09:52:11;77.13;;;29.05;;
22851;SDS011;11592;45.460;9.240;2022-12-18T09:55:34;68.85;;;29.80;;
22851;SDS011;11592;45.460;9.240;2022-12-18T09:57:58;69.97;;;28.38;;
22851;SDS011;11592;45.460;9.240;2022-12-18T10:00:32;77.70;;;29.90;;
22851;SDS011;11592;45.460;9.240;2022-12-18T10:03:01;74.00;;;29.75;;
22851;SDS011;11592;45.460;9.240;2022-12-18T10:08:10;70.53;;;28.25;;
22851;SDS011;11592;45.460;9.240;2022-12-18T10:10:55;66.43;;;30.02;;
22851;SDS011;11592;45.460;9.240;2022-12-18T10:13:38;73.25;;;29.10;;
22851;SDS011;11592;45.460;9.240;2022-12-18T10:21:18;65.60;;;28.60;;
22851;SDS011;11592;45.460;9.240;2022-12-18T10:26:36;62.72;;;26.80;;
22851;SDS011;11592;45.460;9.240;2022-12-18T10:29:07;62.00;;;28.30;;
22851;SDS011;11592;45.460;9.240;2022-12-18T10:31:40;63.95;;;28.50;;
22851;SDS011;11592;45.460;9.240;2022-12-18T10:34:15;70.00;;;28.75;;
22851;SDS011;11592;45.460;9.240;2022-12-18T10:36:41;57.08;;;28.00;;
22851;SDS011;11592;45.460;9.240;2022-12-18T10:39:19;64.47;;;27.70;;
22851;SDS011;11592;45.460;9.240;2022-12-18T10:41:51;60.72;;;26.98;;
22851;SDS011;11592;45.460;9.240;2022-12-18T10:44:19;63.15;;;27.38;;
22851;SDS011;11592;45.460;9.240;2022-12-18T10:46:53;63.90;;;27.08;;
22851;SDS011;11592;45.460;9.240;2022-12-18T10:49:31;61.83;;;28.33;;
22851;SDS011;11592;45.460;9.240;2022-12-18T10:52:20;65.85;;;27.83;;
22851;SDS011;11592;45.460;9.240;2022-12-18T10:54:52;69.45;;;29.02;;
22851;SDS011;11592;45.460;9.240;2022-12-18T10:59:53;72.05;;;30.90;;
22851;SDS011;11592;45.460;9.240;2022-12-18T11:02:39;71.28;;;29.75;;
22851;SDS011;11592;45.460;9.240;2022-12-18T11:07:53;73.22;;;30.08;;
22851;SDS011;11592;45.460;9.240;2022-12-18T11:10:21;68.82;;;29.63;;
22851;SDS011;11592;45.460;9.240;2022-12-18T11:12:51;68.10;;;28.20;;
22851;SDS011;11592;45.460;9.240;2022-12-18T11:15:19;64.55;;;28.92;;
22851;SDS011;11592;45.460;9.240;2022-12-18T11:17:48;61.15;;;28.58;;
22851;SDS011;11592;45.460;9.240;2022-12-18T11:20:19;68.07;;;29.92;;
22851;SDS011;11592;45.460;9.240;2022-12-18T11:23:01;66.82;;;28.33;;
22851;SDS011;11592;45.460;9.240;2022-12-18T11:25:37;67.22;;;28.95;;
22851;SDS011;11592;45.460;9.240;2022-12-18T11:28:08;61.17;;;28.75;;
22851;SDS011;11592;45.460;9.240;2022-12-18T11:33:40;55.17;;;27.92;;
22851;SDS011;11592;45.460;9.240;2022-12-18T11:36:33;60.42;;;27.00;;
22851;SDS011;11592;45.460;9.240;2022-12-18T11:39:10;58.47;;;27.92;;
22851;SDS011;11592;45.460;9.240;2022-12-18T11:41:43;53.33;;;27.05;;
22851;SDS011;11592;45.460;9.240;2022-12-18T11:44:37;50.45;;;25.13;;
22851;SDS011;11592;45.460;9.240;2022-12-18T11:47:38;57.35;;;24.70;;
22851;SDS011;11592;45.460;9.240;2022-12-18T11:50:14;52.75;;;24.80;;
22851;SDS011;11592;45.460;9.240;2022-12-18T11:52:50;50.28;;;25.75;;
22851;SDS011;11592;45.460;9.240;2022-12-18T11:55:29;49.50;;;24.23;;
22851;SDS011;11592;45.460;9.240;2022-12-18T12:00:42;39.20;;;20.83;;
22851;SDS011;11592;45.460;9.240;2022-12-18T12:09:03;33.67;;;19.75;;
22851;SDS011;11592;45.460;9.240;2022-12-18T12:23:04;28.88;;;18.80;;
22851;SDS011;11592;45.460;9.240;2022-12-18T12:28:32;26.73;;;17.75;;
22851;SDS011;11592;45.460;9.240;2022-12-18T12:34:19;27.00;;;17.45;;
22851;SDS011;11592;45.460;9.240;2022-12-18T12:39:37;21.65;;;15.48;;
22851;SDS011;11592;45.460;9.240;2022-12-18T12:42:12;24.27;;;17.13;;
22851;SDS011;11592;45.460;9.240;2022-12-18T12:45:04;25.15;;;17.10;;
22851;SDS011;11592;45.460;9.240;2022-12-18T12:47:35;25.92;;;18.23;;
22851;SDS011;11592;45.460;9.240;2022-12-18T12:50:12;26.23;;;18.05;;
22851;SDS011;11592;45.460;9.240;2022-12-18T12:52:44;28.85;;;18.77;;
22851;SDS011;11592;45.460;9.240;2022-12-18T12:55:18;29.23;;;19.73;;
22851;SDS011;11592;45.460;9.240;2022-12-18T13:00:53;28.27;;;19.60;;
22851;SDS011;11592;45.460;9.240;2022-12-18T13:03:42;29.48;;;19.27;;
22851;SDS011;11592;45.460;9.240;2022-12-18T13:06:25;29.27;;;19.58;;
22851;SDS011;11592;45.460;9.240;2022-12-18T13:09:11;30.88;;;20.80;;
22851;SDS011;11592;45.460;9.240;2022-12-18T13:11:42;33.13;;;21.10;;
22851;SDS011;11592;45.460;9.240;2022-12-18T13:14:34;34.78;;;21.85;;
22851;SDS011;11592;45.460;9.240;2022-12-18T13:19:51;37.03;;;23.63;;
22851;SDS011;11592;45.460;9.240;2022-12-18T13:22:43;38.03;;;24.02;;
22851;SDS011;11592;45.460;9.240;2022-12-18T13:33:30;44.00;;;25.77;;
22851;SDS011;11592;45.460;9.240;2022-12-18T13:38:54;45.20;;;27.00;;
22851;SDS011;11592;45.460;9.240;2022-12-18T13:43:57;45.28;;;28.65;;
22851;SDS011;11592;45.460;9.240;2022-12-18T13:47:05;51.50;;;30.10;;
22851;SDS011;11592;45.460;9.240;2022-12-18T13:50:22;47.42;;;27.33;;
22851;SDS011;11592;45.460;9.240;2022-12-18T13:53:00;51.75;;;29.30;;
22851;SDS011;11592;45.460;9.240;2022-12-18T13:55:28;50.63;;;28.73;;
22851;SDS011;11592;45.460;9.240;2022-12-18T13:58:05;49.28;;;29.48;;
22851;SDS011;11592;45.460;9.240;2022-12-18T14:00:32;52.80;;;29.13;;
22851;SDS011;11592;45.460;9.240;2022-12-18T14:02:59;54.70;;;29.70;;
22851;SDS011;11592;45.460;9.240;2022-12-18T14:05:30;51.80;;;30.38;;
22851;SDS011;11592;45.460;9.240;2022-12-18T14:08:03;56.72;;;29.88;;
22851;SDS011;11592;45.460;9.240;2022-12-18T14:10:34;53.05;;;30.63;;
22851;SDS011;11592;45.460;9.240;2022-12-18T14:13:35;55.30;;;31.27;;
22851;SDS011;11592;45.460;9.240;2022-12-18T14:16:04;57.47;;;30.13;;
22851;SDS011;11592;45.460;9.240;2022-12-18T14:18:48;52.42;;;29.52;;
22851;SDS011;11592;45.460;9.240;2022-12-18T14:21:40;55.28;;;30.15;;
22851;SDS011;11592;45.460;9.240;2022-12-18T14:24:14;56.55;;;31.10;;
22851;SDS011;11592;45.460;9.240;2022-12-18T14:26:49;59.70;;;32.20;;
22851;SDS011;11592;45.460;9.240;2022-12-18T14:29:21;62.55;;;32.67;;
22851;SDS011;11592;45.460;9.240;2022-12-18T14:34:51;64.85;;;32.63;;
22851;SDS011;11592;45.460;9.240;2022-12-18T14:37:25;59.78;;;31.70;;
22851;SDS011;11592;45.460;9.240;2022-12-18T14:39:57;70.20;;;35.55;;
22851;SDS011;11592;45.460;9.240;2022-12-18T14:42:32;63.88;;;33.05;;
22851;SDS011;11592;45.460;9.240;2022-12-18T14:50:36;60.20;;;30.38;;
22851;SDS011;11592;45.460;9.240;2022-12-18T14:53:03;60.80;;;31.90;;
22851;SDS011;11592;45.460;9.240;2022-12-18T14:55:45;63.83;;;32.40;;
22851;SDS011;11592;45.460;9.240;2022-12-18T14:58:14;64.05;;;32.53;;
22851;SDS011;11592;45.460;9.240;2022-12-18T15:00:43;66.75;;;31.92;;
22851;SDS011;11592;45.460;9.240;2022-12-18T15:03:12;55.85;;;30.17;;
22851;SDS011;11592;45.460;9.240;2022-12-18T15:05:44;58.78;;;29.23;;
22851;SDS011;11592;45.460;9.240;2022-12-18T15:08:28;58.78;;;30.70;;
22851;SDS011;11592;45.460;9.240;2022-12-18T15:11:00;57.53;;;29.98;;
22851;SDS011;11592;45.460;9.240;2022-12-18T15:13:28;66.50;;;32.60;;
22851;SDS011;11592;45.460;9.240;2022-12-18T15:15:56;68.68;;;34.05;;
22851;SDS011;11592;45.460;9.240;2022-12-18T15:18:32;68.90;;;34.50;;
22851;SDS011;11592;45.460;9.240;2022-12-18T15:21:08;66.78;;;34.28;;
22851;SDS011;11592;45.460;9.240;2022-12-18T15:26:18;67.20;;;32.50;;
22851;SDS011;11592;45.460;9.240;2022-12-18T15:28:52;65.93;;;33.65;;
22851;SDS011;11592;45.460;9.240;2022-12-18T15:36:22;74.63;;;36.67;;
22851;SDS011;11592;45.460;9.240;2022-12-18T15:38:52;77.22;;;36.00;;
22851;SDS011;11592;45.460;9.240;2022-12-18T15:41:27;72.20;;;36.03;;
22851;SDS011;11592;45.460;9.240;2022-12-18T15:43:54;77.28;;;36.20;;
22851;SDS011;11592;45.460;9.240;2022-12-18T15:46:21;73.53;;;37.65;;
22851;SDS011;11592;45.460;9.240;2022-12-18T15:48:51;75.18;;;37.35;;
22851;SDS011;11592;45.460;9.240;2022-12-18T15:51:31;68.18;;;34.63;;
22851;SDS011;11592;45.460;9.240;2022-12-18T15:54:01;75.97;;;36.95;;
22851;SDS011;11592;45.460;9.240;2022-12-18T15:56:30;70.15;;;35.38;;
22851;SDS011;11592;45.460;9.240;2022-12-18T16:01:54;74.00;;;33.55;;
22851;SDS011;11592;45.460;9.240;2022-12-18T16:04:22;70.60;;;34.38;;
22851;SDS011;11592;45.460;9.240;2022-12-18T16:06:50;69.28;;;34.97;;
22851;SDS011;11592;45.460;9.240;2022-12-18T16:09:40;76.85;;;36.85;;
22851;SDS011;11592;45.460;9.240;2022-12-18T16:12:14;82.93;;;37.65;;
22851;SDS011;11592;45.460;9.240;2022-12-18T16:14:44;83.07;;;38.55;;
22851;SDS011;11592;45.460;9.240;2022-12-18T16:17:12;88.50;;;39.75;;
22851;SDS011;11592;45.460;9.240;2022-12-18T16:19:39;77.93;;;37.60;;
22851;SDS011;11592;45.460;9.240;2022-12-18T16:22:08;84.13;;;38.70;;
22851;SDS011;11592;45.460;9.240;2022-12-18T16:24:53;84.55;;;38.40;;
22851;SDS011;11592;45.460;9.240;2022-12-18T16:27:21;89.72;;;41.40;;
22851;SDS011;11592;45.460;9.240;2022-12-18T16:29:49;87.30;;;40.15;;
22851;SDS011;11592;45.460;9.240;2022-12-18T16:32:19;83.32;;;38.00;;
22851;SDS011;11592;45.460;9.240;2022-12-18T16:34:48;82.25;;;39.22;;
22851;SDS011;11592;45.460;9.240;2022-12-18T16:37:15;87.03;;;39.72;;
22851;SDS011;11592;45.460;9.240;2022-12-18T16:39:42;82.85;;;37.92;;
22851;SDS011;11592;45.460;9.240;2022-12-18T16:44:43;80.45;;;37.20;;
22851;SDS011;11592;45.460;9.240;2022-12-18T16:47:10;82.35;;;38.45;;